Time;durP1;ratioP1;P1;durP2;ratioP2;P2;SDS_P1;SDS_P2;PMS_P1;PMS_P2;Temp;Humidity;BMP_temperature;BMP_pressure;BME280_temperature;BME280_humidity;BME280_pressure;Samples;Min_cycle;Max_cycle;Signal;HPM_P1;HPM_P2
2023/03/14 00:00:48;;;;;;;14.80;5.47;;;9.70;99.90;;;;;;5155688;27;20047;-82
2023/03/14 00:03:14;;;;;;;15.50;7.40;;;9.70;99.90;;;;;;5154337;27;20482;-79
2023/03/14 00:05:39;;;;;;;15.25;7.03;;;9.70;99.90;;;;;;5137638;27;20095;-81
2023/03/14 00:08:05;;;;;;;21.52;6.05;;;9.70;99.90;;;;;;5155509;27;20552;-80
2023/03/14 00:10:31;;;;;;;15.80;6.60;;;9.80;99.90;;;;;;5155539;27;20465;-82
2023/03/14 00:12:56;;;;;;;16.38;6.35;;;9.80;99.90;;;;;;5155269;27;20038;-80
2023/03/14 00:15:22;;;;;;;26.42;5.93;;;9.80;99.90;;;;;;5136607;27;20078;-80
2023/03/14 00:17:48;;;;;;;17.48;6.57;;;9.90;99.90;;;;;;5155149;27;20035;-80
2023/03/14 00:20:13;;;;;;;19.20;5.93;;;9.90;99.90;;;;;;5155046;27;20451;-78
2023/03/14 00:22:40;;;;;;;22.77;7.57;;;10.00;99.90;;;;;;5154948;27;20081;-76
2023/03/14 00:25:07;;;;;;;21.63;6.43;;;10.00;99.90;;;;;;5155233;27;20038;-82
2023/03/14 00:27:33;;;;;;;15.60;5.10;;;10.10;99.90;;;;;;5155002;27;20146;-82
2023/03/14 00:29:59;;;;;;;11.93;5.60;;;10.20;99.90;;;;;;5137667;27;20092;-76
2023/03/14 00:32:25;;;;;;;14.30;5.70;;;10.20;99.90;;;;;;5161723;27;20118;-79
2023/03/14 00:34:50;;;;;;;11.02;5.90;;;10.30;99.90;;;;;;5162178;27;20061;-81
2023/03/14 00:37:16;;;;;;;18.85;5.40;;;10.30;99.90;;;;;;5162910;27;20035;-77
2023/03/14 00:39:42;;;;;;;15.68;5.75;;;10.30;99.90;;;;;;5161763;27;20043;-78
2023/03/14 00:42:08;;;;;;;14.57;4.95;;;10.40;99.90;;;;;;5155225;27;20042;-80
2023/03/14 00:44:34;;;;;;;8.95;4.30;;;10.50;99.90;;;;;;5155057;27;20049;-82
2023/03/14 00:46:59;;;;;;;15.18;4.85;;;10.60;99.90;;;;;;5136665;27;20050;-80
2023/03/14 00:49:25;;;;;;;18.45;5.20;;;10.70;99.90;;;;;;5154919;27;20046;-79
2023/03/14 00:51:51;;;;;;;12.63;4.57;;;10.80;99.90;;;;;;5155161;27;20070;-82
2023/03/14 00:54:21;;;;;;;14.27;5.00;;;10.80;99.90;;;;;;5155245;27;20038;-79
2023/03/14 00:56:47;;;;;;;18.42;4.75;;;11.00;99.90;;;;;;5154753;27;20121;-79
2023/03/14 00:59:13;;;;;;;10.57;5.25;;;11.00;99.90;;;;;;5136068;27;20097;-82
2023/03/14 01:01:39;;;;;;;13.40;4.88;;;11.00;99.90;;;;;;5154399;27;20047;-81
2023/03/14 01:04:06;;;;;;;18.08;5.10;;;11.00;99.90;;;;;;5135938;27;20047;-81
2023/03/14 01:06:31;;;;;;;12.38;5.50;;;11.00;99.90;;;;;;5154591;27;20452;-80
2023/03/14 01:08:57;;;;;;;12.85;5.45;;;10.90;99.90;;;;;;5135989;27;20073;-80
2023/03/14 01:11:25;;;;;;;11.57;4.85;;;10.90;99.90;;;;;;5153963;27;20483;-83
2023/03/14 01:13:51;;;;;;;12.15;5.40;;;11.00;99.90;;;;;;5135991;27;20477;-81
2023/03/14 01:16:19;;;;;;;12.43;4.82;;;11.00;99.90;;;;;;5154503;27;20095;-80
2023/03/14 01:18:45;;;;;;;11.23;4.38;;;11.00;99.90;;;;;;5154074;27;20070;-83
2023/03/14 01:21:15;;;;;;;15.52;5.55;;;11.00;99.90;;;;;;5154555;27;20050;-79
2023/03/14 01:23:42;;;;;;;11.30;5.03;;;11.00;99.90;;;;;;5154762;27;20341;-78
2023/03/14 01:26:12;;;;;;;16.63;4.82;;;11.10;99.90;;;;;;5154101;27;20042;-80
2023/03/14 01:28:38;;;;;;;16.10;4.60;;;11.00;99.90;;;;;;5154185;27;20046;-80
2023/03/14 01:31:05;;;;;;;14.27;4.75;;;11.00;99.90;;;;;;5154082;27;20049;-80
2023/03/14 01:33:31;;;;;;;8.13;3.70;;;11.00;99.90;;;;;;5154254;27;20047;-80
2023/03/14 01:35:57;;;;;;;11.70;4.80;;;11.10;99.90;;;;;;5153955;27;20479;-80
2023/03/14 01:38:22;;;;;;;8.95;4.82;;;11.10;99.90;;;;;;5154114;27;20569;-81
2023/03/14 01:40:48;;;;;;;10.02;4.80;;;11.10;99.90;;;;;;5153943;27;20038;-82
2023/03/14 01:43:16;;;;;;;11.85;4.50;;;11.20;99.90;;;;;;5154362;27;20125;-81
2023/03/14 01:46:01;;;;;;;16.60;4.55;;;11.20;99.90;;;;;;5153923;27;20121;-79
2023/03/14 01:48:51;;;;;;;16.63;4.30;;;11.20;99.90;;;;;;5154140;27;20475;-83
2023/03/14 01:51:24;;;;;;;12.95;4.65;;;11.20;99.90;;;;;;5111529;27;20055;-81
2023/03/14 01:53:50;;;;;;;;;;;11.20;99.90;;;;;;5136071;27;20050;-81
2023/03/14 01:56:18;;;;;;;17.70;4.68;;;11.20;99.90;;;;;;5153881;27;20355;-81
2023/03/14 01:58:47;;;;;;;9.23;3.33;;;11.10;99.90;;;;;;5153887;27;20051;-81
2023/03/14 02:01:16;;;;;;;8.50;4.65;;;11.10;99.90;;;;;;5153859;27;20115;-82
2023/03/14 02:03:52;;;;;;;10.68;3.83;;;11.10;99.90;;;;;;5153820;27;20039;-79
2023/03/14 02:06:21;;;;;;;10.68;4.57;;;11.10;99.90;;;;;;5153737;27;20043;-80
2023/03/14 02:08:49;;;;;;;10.43;3.20;;;11.00;99.90;;;;;;5153610;27;20129;-82
2023/03/14 02:11:17;;;;;;;12.23;3.88;;;11.00;99.90;;;;;;5153642;27;20135;-79
2023/03/14 02:13:43;;;;;;;11.85;4.60;;;11.00;99.90;;;;;;5153572;27;20117;-79
2023/03/14 02:16:09;;;;;;;8.18;3.15;;;11.00;99.90;;;;;;5153939;27;20103;-80
2023/03/14 02:18:35;;;;;;;7.45;3.30;;;11.00;99.90;;;;;;5153443;27;20509;-80
2023/03/14 02:21:14;;;;;;;6.90;3.40;;;11.00;99.90;;;;;;5153573;27;20109;-81
2023/03/14 02:24:03;;;;;;;9.35;3.75;;;11.00;99.90;;;;;;5153845;27;20039;-76
2023/03/14 02:26:54;;;;;;;11.80;3.67;;;10.90;99.90;;;;;;5155272;27;20443;-81
2023/03/14 02:29:19;;;;;;;10.93;3.97;;;10.90;99.90;;;;;;5157445;27;20122;-80
2023/03/14 02:31:45;;;;;;;9.45;3.67;;;10.90;99.90;;;;;;5157189;27;20080;-78
2023/03/14 02:34:11;;;;;;;10.05;3.45;;;10.90;99.90;;;;;;5157192;27;20050;-80
2023/03/14 02:36:37;;;;;;;7.95;3.13;;;10.90;99.90;;;;;;5157211;27;20125;-80
2023/03/14 02:39:13;;;;;;;9.45;3.05;;;10.90;99.90;;;;;;5157437;27;20050;-80
2023/03/14 02:41:39;;;;;;;3.95;2.90;;;10.80;99.90;;;;;;5157162;27;20086;-79
2023/03/14 02:44:05;;;;;;;4.78;2.88;;;10.80;99.90;;;;;;5157281;27;20046;-78
2023/03/14 02:46:31;;;;;;;4.97;2.60;;;10.80;99.90;;;;;;5157317;27;20190;-80
2023/03/14 02:49:12;;;;;;;7.22;2.78;;;10.80;99.90;;;;;;5156801;27;20042;-79
2023/03/14 02:51:40;;;;;;;7.45;2.58;;;10.80;99.90;;;;;;5157485;27;20174;-82
2023/03/14 02:54:07;;;;;;;5.22;2.58;;;10.80;99.90;;;;;;5138464;27;20049;-80
2023/03/14 02:56:32;;;;;;;5.28;2.30;;;10.70;99.90;;;;;;5156879;27;20042;-80
2023/03/14 02:58:58;;;;;;;4.45;2.40;;;10.70;99.90;;;;;;5156707;27;20057;-79
2023/03/14 03:01:24;;;;;;;6.93;2.35;;;10.70;99.90;;;;;;5157392;27;20051;-81
2023/03/14 03:03:50;;;;;;;6.07;2.75;;;10.70;99.90;;;;;;5156546;27;20453;-80
2023/03/14 03:06:16;;;;;;;3.13;2.25;;;10.60;99.90;;;;;;5138340;27;20089;-81
2023/03/14 03:08:42;;;;;;;5.57;2.75;;;10.70;99.90;;;;;;5156366;27;20049;-80
2023/03/14 03:11:07;;;;;;;4.22;2.20;;;10.60;99.90;;;;;;5120912;27;20047;-81
2023/03/14 03:13:34;;;;;;;8.60;3.30;;;10.70;99.90;;;;;;5156680;27;20039;-81
2023/03/14 03:15:59;;;;;;;8.45;3.42;;;10.70;99.90;;;;;;5156417;27;20043;-79
2023/03/14 03:18:25;;;;;;;9.10;3.50;;;10.70;99.90;;;;;;5156541;27;20050;-77
2023/03/14 03:20:51;;;;;;;6.82;3.28;;;10.60;99.90;;;;;;5156329;27;20043;-74
2023/03/14 03:23:17;;;;;;;11.82;4.38;;;10.60;99.90;;;;;;5156471;27;20530;-81
2023/03/14 03:25:47;;;;;;;9.90;3.90;;;10.50;99.90;;;;;;5156514;27;20047;-77
2023/03/14 03:28:13;;;;;;;11.02;4.20;;;10.50;99.90;;;;;;5156387;27;20152;-81
2023/03/14 03:30:39;;;;;;;9.57;5.10;;;10.40;99.90;;;;;;5156411;27;20471;-79
2023/03/14 03:33:05;;;;;;;9.27;4.40;;;10.40;99.90;;;;;;5156387;27;20039;-77
2023/03/14 03:35:31;;;;;;;6.53;4.78;;;10.40;99.90;;;;;;5156060;27;20050;-77
2023/03/14 03:37:57;;;;;;;12.70;5.25;;;10.40;99.90;;;;;;5154895;27;20050;-80
2023/03/14 03:40:23;;;;;;;10.48;4.75;;;10.30;99.90;;;;;;5156052;27;20038;-81
2023/03/14 03:42:48;;;;;;;12.15;4.43;;;10.30;99.90;;;;;;5137698;27;20043;-80
2023/03/14 03:45:14;;;;;;;8.80;4.80;;;10.20;99.90;;;;;;5163010;27;20135;-78
2023/03/14 03:47:40;;;;;;;10.00;5.07;;;10.20;99.90;;;;;;5163654;27;20035;-80
2023/03/14 03:50:06;;;;;;;8.90;4.50;;;10.20;99.90;;;;;;5162778;27;20039;-80
2023/03/14 03:52:31;;;;;;;9.43;4.28;;;10.20;99.90;;;;;;5163760;27;20357;-78
2023/03/14 03:54:57;;;;;;;14.18;5.00;;;10.10;99.90;;;;;;5156286;27;20050;-80
2023/03/14 03:57:23;;;;;;;10.52;5.28;;;10.10;99.90;;;;;;5156024;27;20561;-80
2023/03/14 03:59:48;;;;;;;8.27;4.88;;;10.10;99.90;;;;;;5155491;27;20502;-80
2023/03/14 04:02:14;;;;;;;13.90;5.10;;;10.10;99.90;;;;;;5156491;27;20134;-80
2023/03/14 04:04:40;;;;;;;16.08;5.72;;;10.10;99.90;;;;;;5155997;27;20047;-79
2023/03/14 04:07:06;;;;;;;11.77;4.65;;;10.00;99.90;;;;;;5155753;27;20054;-79
2023/03/14 04:09:31;;;;;;;8.40;3.60;;;10.00;99.90;;;;;;5156041;27;20043;-78
2023/03/14 04:11:57;;;;;;;14.63;5.47;;;10.00;99.90;;;;;;5155112;27;20086;-80
2023/03/14 04:14:23;;;;;;;10.98;5.00;;;9.90;99.90;;;;;;5155495;27;20039;-82
2023/03/14 04:16:48;;;;;;;14.30;5.32;;;9.90;99.90;;;;;;5155491;27;20481;-81
2023/03/14 04:19:14;;;;;;;9.93;4.32;;;9.90;99.90;;;;;;5137108;27;20061;-80
2023/03/14 04:21:44;;;;;;;11.13;4.35;;;9.90;99.90;;;;;;5155333;27;20049;-81
2023/03/14 04:24:10;;;;;;;12.40;5.18;;;9.90;99.90;;;;;;5155228;27;20039;-81
2023/03/14 04:26:36;;;;;;;9.85;4.38;;;9.80;99.90;;;;;;5155146;27;20083;-81
2023/03/14 04:29:02;;;;;;;9.70;4.47;;;9.80;99.90;;;;;;5155115;27;20045;-80
2023/03/14 04:31:27;;;;;;;10.93;4.88;;;9.80;99.90;;;;;;5155033;27;20048;-79
2023/03/14 04:33:53;;;;;;;9.05;5.50;;;9.70;99.90;;;;;;5155266;27;20046;-82
2023/03/14 04:36:19;;;;;;;10.73;4.88;;;9.70;99.90;;;;;;5136792;27;20082;-83
2023/03/14 04:38:45;;;;;;;8.13;5.05;;;9.70;99.90;;;;;;5154886;27;20046;-80
2023/03/14 04:41:10;;;;;;;11.40;5.30;;;9.70;99.90;;;;;;5154910;27;20368;-81
2023/03/14 04:43:36;;;;;;;11.65;5.13;;;9.70;99.90;;;;;;5155137;27;20042;-80
2023/03/14 04:46:02;;;;;;;7.68;4.88;;;9.70;99.90;;;;;;5154971;27;20085;-79
2023/03/14 04:48:28;;;;;;;12.60;5.55;;;9.70;99.90;;;;;;5154602;27;20507;-80
2023/03/14 04:50:54;;;;;;;15.30;5.53;;;9.70;99.90;;;;;;5136114;27;20475;-81
2023/03/14 04:53:20;;;;;;;17.27;6.35;;;9.60;99.90;;;;;;5155036;27;20045;-80
2023/03/14 04:55:54;;;;;;;11.20;4.80;;;9.60;99.90;;;;;;5155256;27;20042;-82
2023/03/14 04:58:21;;;;;;;7.82;4.00;;;9.60;99.90;;;;;;5154596;27;20042;-77
2023/03/14 05:00:47;;;;;;;7.82;3.92;;;9.60;99.90;;;;;;5154807;27;20051;-79
2023/03/14 05:03:15;;;;;;;9.13;4.20;;;9.90;99.90;;;;;;5154509;27;20038;-78
2023/03/14 05:05:40;;;;;;;8.23;4.78;;;9.60;99.90;;;;;;5136789;27;20351;-80
2023/03/14 05:08:06;;;;;;;6.38;4.18;;;9.50;99.90;;;;;;5154240;27;20122;-80
2023/03/14 05:10:32;;;;;;;7.57;4.30;;;9.50;99.90;;;;;;5154665;27;20446;-79
2023/03/14 05:12:58;;;;;;;7.22;4.45;;;9.50;99.90;;;;;;5154234;27;20118;-80
2023/03/14 05:15:23;;;;;;;8.57;4.65;;;9.50;99.90;;;;;;5154186;27;20127;-78
2023/03/14 05:17:49;;;;;;;6.78;4.68;;;9.50;99.90;;;;;;5154203;27;20043;-79
2023/03/14 05:20:15;;;;;;;9.10;4.75;;;9.50;99.90;;;;;;5154191;27;20053;-80
2023/03/14 05:22:41;;;;;;;9.88;5.10;;;9.50;99.90;;;;;;5154108;27;20078;-80
2023/03/14 05:25:07;;;;;;;8.80;4.85;;;9.50;99.90;;;;;;5154457;27;20141;-79
2023/03/14 05:27:34;;;;;;;9.27;5.20;;;9.50;99.90;;;;;;5154192;27;20054;-80
2023/03/14 05:29:59;;;;;;;11.32;4.82;;;9.50;99.90;;;;;;5153820;27;20414;-81
2023/03/14 05:32:25;;;;;;;12.70;4.90;;;9.50;99.90;;;;;;5154038;27;20054;-80
2023/03/14 05:34:51;;;;;;;10.35;5.25;;;9.50;99.90;;;;;;5154035;27;20047;-81
2023/03/14 05:37:16;;;;;;;13.18;5.07;;;9.50;99.90;;;;;;5154299;27;20042;-82
2023/03/14 05:39:42;;;;;;;9.00;5.28;;;9.50;99.90;;;;;;5154065;27;20047;-80
2023/03/14 05:42:08;;;;;;;10.32;5.57;;;9.50;99.90;;;;;;5153978;27;20049;-80
2023/03/14 05:44:33;;;;;;;10.85;5.13;;;9.40;99.90;;;;;;5153739;27;20046;-81
2023/03/14 05:46:59;;;;;;;9.80;5.43;;;9.50;99.90;;;;;;5154054;27;20050;-79
2023/03/14 05:49:25;;;;;;;11.05;5.75;;;9.40;99.90;;;;;;5154058;27;20058;-79
2023/03/14 05:51:51;;;;;;;6.97;5.07;;;9.40;99.90;;;;;;5153901;27;20078;-81
2023/03/14 05:54:16;;;;;;;8.70;5.85;;;9.40;99.90;;;;;;5154118;27;20442;-82
2023/03/14 05:56:42;;;;;;;9.55;5.43;;;9.30;99.90;;;;;;5154063;27;20466;-79
2023/03/14 05:59:08;;;;;;;15.70;6.03;;;9.30;99.90;;;;;;5153527;27;20094;-78
2023/03/14 06:01:34;;;;;;;10.88;5.60;;;9.30;99.90;;;;;;5155212;27;20095;-78
2023/03/14 06:04:00;;;;;;;11.48;5.57;;;9.40;99.90;;;;;;5139203;27;20047;-80
2023/03/14 06:06:26;;;;;;;8.38;6.03;;;9.40;99.90;;;;;;5157725;27;20038;-81
2023/03/14 06:08:51;;;;;;;11.27;5.45;;;9.30;99.90;;;;;;5158086;27;20131;-83
2023/03/14 06:11:17;;;;;;;9.05;5.30;;;9.30;99.90;;;;;;5158168;27;20043;-82
2023/03/14 06:13:43;;;;;;;12.65;5.85;;;9.40;99.90;;;;;;5156992;27;20505;-82
2023/03/14 06:16:08;;;;;;;8.85;5.70;;;9.30;99.90;;;;;;5157872;27;20047;-82
2023/03/14 06:18:34;;;;;;;10.73;6.10;;;9.30;99.90;;;;;;5157578;27;20121;-81
2023/03/14 06:21:00;;;;;;;12.55;6.68;;;9.30;99.90;;;;;;5139018;27;20416;-79
2023/03/14 06:23:26;;;;;;;9.95;6.57;;;9.30;99.90;;;;;;5157190;27;20049;-81
2023/03/14 06:25:52;;;;;;;11.18;5.30;;;9.30;99.90;;;;;;5157391;27;20046;-79
2023/03/14 06:28:17;;;;;;;9.43;5.63;;;9.40;99.90;;;;;;5157093;27;20074;-81
2023/03/14 06:30:43;;;;;;;6.10;3.70;;;9.30;99.90;;;;;;5138956;27;20374;-80
2023/03/14 06:33:09;;;;;;;8.48;4.70;;;9.30;99.90;;;;;;5138624;27;20477;-80
2023/03/14 06:35:34;;;;;;;10.00;4.32;;;9.40;99.90;;;;;;5157133;27;20053;-81
2023/03/14 06:38:00;;;;;;;8.15;4.93;;;9.40;99.90;;;;;;5156916;27;20486;-79
2023/03/14 06:40:26;;;;;;;9.95;5.15;;;9.40;99.90;;;;;;5156889;27;20051;-78
2023/03/14 06:42:51;;;;;;;8.43;4.68;;;9.40;99.90;;;;;;5156709;27;20071;-80
2023/03/14 06:45:17;;;;;;;5.30;4.13;;;9.40;99.90;;;;;;5157141;27;20127;-81
2023/03/14 06:47:43;;;;;;;10.13;4.28;;;9.40;99.90;;;;;;5156598;27;20459;-78
2023/03/14 06:50:09;;;;;;;9.57;4.40;;;9.30;99.90;;;;;;5156934;27;20046;-78
2023/03/14 06:52:35;;;;;;;6.50;4.97;;;9.40;99.90;;;;;;5157054;27;20065;-77
2023/03/14 06:55:02;;;;;;;6.68;2.78;;;9.40;99.90;;;;;;5156873;27;20081;-78
2023/03/14 06:57:27;;;;;;;5.75;1.63;;;9.10;99.90;;;;;;5156482;27;20534;-78
2023/03/14 06:59:53;;;;;;;5.75;2.53;;;8.90;99.90;;;;;;5156243;27;20082;-79
2023/03/14 07:02:19;;;;;;;2.50;1.13;;;8.70;99.90;;;;;;5137541;27;20055;-76
2023/03/14 07:04:44;;;;;;;3.63;2.00;;;8.40;99.90;;;;;;5156341;27;20053;-75
2023/03/14 07:07:11;;;;;;;7.03;1.67;;;8.30;99.90;;;;;;5156843;27;20099;-76
2023/03/14 07:09:37;;;;;;;9.00;2.65;;;8.10;99.90;;;;;;5156527;27;20130;-76
2023/03/14 07:12:04;;;;;;;9.82;2.22;;;7.90;99.90;;;;;;5156740;27;20078;-75
2023/03/14 07:14:30;;;;;;;5.28;1.98;;;7.80;99.90;;;;;;5137913;27;20055;-75
2023/03/14 07:16:55;;;;;;;4.22;1.60;;;7.50;99.90;;;;;;5156524;27;20039;-76
2023/03/14 07:19:21;;;;;;;7.57;2.00;;;7.30;99.90;;;;;;5156364;27;20050;-77
2023/03/14 07:21:47;;;;;;;5.43;2.17;;;7.10;99.90;;;;;;5137896;27;20038;-78
2023/03/14 07:24:13;;;;;;;6.75;2.20;;;6.80;99.90;;;;;;5137714;27;20049;-75
2023/03/14 07:26:38;;;;;;;7.60;1.90;;;6.60;99.90;;;;;;5156414;27;20047;-76
2023/03/14 07:29:04;;;;;;;7.47;2.30;;;6.40;99.90;;;;;;5156825;27;20196;-77
2023/03/14 07:31:30;;;;;;;3.75;1.83;;;6.40;99.90;;;;;;5156117;27;20530;-77
2023/03/14 07:33:56;;;;;;;5.05;1.95;;;6.20;99.90;;;;;;5137874;27;20114;-75
2023/03/14 07:36:21;;;;;;;3.42;1.38;;;6.00;99.90;;;;;;5156370;27;20488;-76
2023/03/14 07:38:47;;;;;;;4.20;1.67;;;5.80;99.90;;;;;;5156184;27;20047;-75
2023/03/14 07:41:13;;;;;;;3.97;1.30;;;5.70;99.90;;;;;;5156006;27;20535;-77
2023/03/14 07:43:39;;;;;;;4.65;1.45;;;5.60;99.90;;;;;;5137351;27;20047;-78
2023/03/14 07:46:05;;;;;;;1.70;1.50;;;5.40;99.90;;;;;;5155886;27;20038;-77
2023/03/14 07:48:31;;;;;;;4.47;1.50;;;5.40;99.90;;;;;;5155763;27;20050;-78
2023/03/14 07:50:57;;;;;;;5.93;1.30;;;5.30;99.90;;;;;;5155865;27;20045;-75
2023/03/14 07:53:24;;;;;;;3.20;1.75;;;5.10;99.90;;;;;;5155839;27;20464;-76
2023/03/14 07:55:54;;;;;;;4.43;1.50;;;5.10;99.90;;;;;;5155669;27;20493;-76
2023/03/14 07:58:24;;;;;;;6.95;1.90;;;5.00;99.90;;;;;;5155833;27;20048;-74
2023/03/14 08:00:50;;;;;;;2.95;1.10;;;4.90;99.90;;;;;;5155454;27;20065;-76
2023/03/14 08:03:16;;;;;;;3.05;1.38;;;5.00;99.90;;;;;;5155510;27;20082;-75
2023/03/14 08:05:42;;;;;;;2.17;1.95;;;5.00;99.90;;;;;;5155182;27;20460;-75
2023/03/14 08:08:08;;;;;;;4.53;1.77;;;5.00;99.90;;;;;;5137166;27;20046;-77
2023/03/14 08:10:34;;;;;;;3.17;1.20;;;5.00;99.90;;;;;;5154934;27;20050;-80
2023/03/14 08:13:00;;;;;;;1.25;1.00;;;5.00;99.90;;;;;;5137188;27;20515;-74
2023/03/14 08:15:29;;;;;;;2.38;1.23;;;4.90;99.90;;;;;;5155292;27;20434;-76
2023/03/14 08:17:55;;;;;;;3.72;1.20;;;4.90;99.90;;;;;;5154753;27;20039;-78
2023/03/14 08:20:23;;;;;;;1.65;0.98;;;5.10;99.90;;;;;;5154867;27;20056;-75
2023/03/14 08:22:49;;;;;;;3.25;2.47;;;5.10;99.90;;;;;;5155238;27;20086;-75
2023/03/14 08:25:15;;;;;;;6.70;1.50;;;5.10;99.90;;;;;;5154155;27;20042;-78
2023/03/14 08:27:41;;;;;;;2.95;1.98;;;5.10;99.90;;;;;;5154664;27;20045;-76
2023/03/14 08:30:13;;;;;;;2.60;0.80;;;5.20;99.90;;;;;;5154777;27;20042;-78
2023/03/14 08:32:39;;;;;;;2.70;1.30;;;5.20;99.90;;;;;;5155431;27;20502;-76
2023/03/14 08:35:06;;;;;;;2.90;1.27;;;5.30;99.90;;;;;;5136733;27;20121;-75
2023/03/14 08:37:32;;;;;;;4.05;1.40;;;5.30;99.90;;;;;;5136503;27;20049;-77
2023/03/14 08:39:58;;;;;;;2.50;1.15;;;5.40;99.90;;;;;;5154987;27;20057;-78
2023/03/14 08:42:24;;;;;;;3.13;1.10;;;5.30;99.90;;;;;;5154971;27;20035;-77
2023/03/14 08:44:51;;;;;;;4.38;1.20;;;5.40;99.90;;;;;;5154666;27;20053;-74
2023/03/14 08:47:17;;;;;;;1.58;1.20;;;5.50;99.90;;;;;;5154825;27;20041;-75
2023/03/14 08:49:43;;;;;;;5.10;1.25;;;5.50;99.90;;;;;;5154730;27;20467;-76
2023/03/14 08:52:08;;;;;;;3.15;1.58;;;5.60;99.90;;;;;;5136418;27;20455;-72
2023/03/14 08:54:34;;;;;;;5.20;1.90;;;5.60;99.90;;;;;;5154302;27;20519;-76
2023/03/14 08:57:00;;;;;;;2.65;1.20;;;5.70;99.90;;;;;;5154338;27;20043;-75
2023/03/14 08:59:26;;;;;;;5.70;2.53;;;5.80;99.90;;;;;;5154644;27;20050;-77
2023/03/14 09:01:51;;;;;;;3.00;1.52;;;5.80;99.90;;;;;;5154669;27;20468;-78
2023/03/14 09:04:17;;;;;;;8.63;2.38;;;6.00;99.90;;;;;;5135689;27;20050;-76
2023/03/14 09:06:43;;;;;;;5.93;2.22;;;6.00;99.90;;;;;;5154666;27;20042;-77
2023/03/14 09:09:08;;;;;;;10.55;2.72;;;6.20;99.90;;;;;;5154639;27;20128;-78
2023/03/14 09:11:34;;;;;;;6.35;2.70;;;6.30;99.90;;;;;;5135684;27;20417;-77
2023/03/14 09:14:00;;;;;;;6.95;2.08;;;6.40;99.90;;;;;;5154275;27;20368;-75
2023/03/14 09:16:26;;;;;;;6.18;2.78;;;6.50;99.90;;;;;;5135857;27;20457;-77
2023/03/14 09:18:57;;;;;;;6.10;2.83;;;6.40;99.90;;;;;;5135805;27;20038;-76
2023/03/14 09:21:23;;;;;;;10.13;3.13;;;6.50;99.90;;;;;;5154403;27;20046;-76
2023/03/14 09:23:48;;;;;;;7.40;2.90;;;6.60;99.90;;;;;;5154729;27;20042;-78
2023/03/14 09:26:14;;;;;;;10.73;3.30;;;6.90;99.90;;;;;;5102032;27;20399;-77
2023/03/14 09:28:40;;;;;;;10.88;3.65;;;7.00;99.90;;;;;;5154163;27;20043;-77
2023/03/14 09:31:10;;;;;;;12.73;3.67;;;7.10;99.90;;;;;;5154626;27;20104;-78
2023/03/14 09:33:36;;;;;;;12.65;3.40;;;7.20;99.90;;;;;;5154102;27;20041;-76
2023/03/14 09:36:02;;;;;;;12.52;4.35;;;7.30;99.90;;;;;;5156636;27;20042;-76
2023/03/14 09:38:28;;;;;;;8.95;4.47;;;7.10;99.90;;;;;;5158460;27;20046;-75
2023/03/14 09:40:57;;;;;;;10.07;4.53;;;7.00;99.90;;;;;;5158089;27;20051;-77
2023/03/14 09:43:26;;;;;;;13.65;4.13;;;6.90;99.90;;;;;;5158060;27;20527;-77
2023/03/14 09:45:52;;;;;;;14.68;4.03;;;7.00;99.90;;;;;;5158384;27;20126;-76
2023/03/14 09:48:24;;;;;;;13.15;3.83;;;6.80;99.90;;;;;;5139859;27;20047;-76
2023/03/14 09:51:05;;;;;;;12.63;4.07;;;6.90;99.90;;;;;;5158308;27;20126;-76
2023/03/14 09:53:42;;;;;;;7.50;3.80;;;6.90;99.90;;;;;;5158423;27;20046;-74
2023/03/14 09:56:18;;;;;;;21.13;4.85;;;6.80;99.90;;;;;;5157915;27;20130;-76
2023/03/14 09:58:48;;;;;;;16.92;4.65;;;6.80;99.90;;;;;;5139739;27;20046;-75
2023/03/14 10:01:16;;;;;;;12.57;4.03;;;6.80;99.90;;;;;;5158627;27;20055;-77
2023/03/14 10:03:45;;;;;;;13.02;4.82;;;6.90;99.90;;;;;;5158409;27;20046;-75
2023/03/14 10:06:14;;;;;;;10.30;4.20;;;7.00;99.90;;;;;;5157795;27;20059;-75
2023/03/14 10:08:43;;;;;;;6.65;3.80;;;6.30;99.90;;;;;;5158138;27;20055;-74
2023/03/14 10:11:17;;;;;;;17.02;4.45;;;7.00;99.90;;;;;;5157680;27;20046;-75
2023/03/14 10:14:06;;;;;;;9.70;4.10;;;7.10;99.90;;;;;;5158112;27;20083;-76
2023/03/14 10:16:34;;;;;;;11.98;4.10;;;7.20;99.90;;;;;;5158673;27;20045;-75
2023/03/14 10:19:14;;;;;;;11.90;4.63;;;7.30;99.90;;;;;;5159305;27;20053;-75
2023/03/14 10:21:44;;;;;;;13.30;4.15;;;7.40;99.90;;;;;;5158518;27;20111;-76
2023/03/14 10:24:25;;;;;;;15.27;4.60;;;7.40;99.90;;;;;;5157818;27;20041;-78
2023/03/14 10:26:58;;;;;;;19.40;4.90;;;7.20;99.90;;;;;;5159085;27;20102;-77
2023/03/14 10:29:24;;;;;;;16.92;4.60;;;7.10;99.90;;;;;;5157876;27;20042;-76
2023/03/14 10:32:20;;;;;;;18.73;4.43;;;7.10;99.90;;;;;;5138811;27;20529;-74
2023/03/14 10:35:15;;;;;;;13.30;4.47;;;7.10;99.90;;;;;;5155534;27;20043;-78
2023/03/14 10:38:00;;;;;;;9.85;3.83;;;7.20;99.90;;;;;;5157567;27;20105;-74
2023/03/14 10:40:39;;;;;;;13.93;4.85;;;7.10;99.90;;;;;;5157639;27;20046;-74
2023/03/14 10:43:07;;;;;;;11.68;4.22;;;7.20;99.90;;;;;;5157934;27;20062;-76
2023/03/14 10:45:45;;;;;;;9.88;4.28;;;7.40;99.90;;;;;;5157342;27;20086;-76
2023/03/14 10:48:13;;;;;;;9.80;3.38;;;7.40;99.90;;;;;;5156655;27;20553;-76
2023/03/14 10:50:53;;;;;;;12.25;3.45;;;7.50;99.90;;;;;;5157230;27;20043;-77
2023/03/14 10:53:19;;;;;;;10.98;3.83;;;7.30;99.90;;;;;;5139317;27;20376;-76
2023/03/14 10:55:45;;;;;;;6.32;3.05;;;7.30;99.90;;;;;;5157220;27;20054;-75
2023/03/14 10:58:29;;;;;;;12.40;3.63;;;7.40;99.90;;;;;;5156985;27;20038;-77
2023/03/14 11:01:02;;;;;;;10.43;3.42;;;7.50;99.90;;;;;;5138227;27;20485;-75
2023/03/14 11:03:33;;;;;;;13.05;3.60;;;7.50;99.90;;;;;;5138782;27;20043;-76
2023/03/14 11:06:18;;;;;;;10.13;3.10;;;7.50;99.90;;;;;;5156891;27;20046;-75
2023/03/14 11:09:05;;;;;;;6.75;3.00;;;7.90;99.90;;;;;;5157043;27;20405;-76
2023/03/14 11:11:31;;;;;;;9.13;3.03;;;8.10;99.90;;;;;;5142967;27;20055;-74
2023/03/14 11:13:57;;;;;;;16.65;4.03;;;8.40;99.90;;;;;;5156602;27;20047;-76
2023/03/14 11:16:33;;;;;;;9.48;3.30;;;8.10;99.90;;;;;;5156960;27;20062;-77
2023/03/14 11:19:39;;;;;;;8.82;2.60;;;7.90;99.90;;;;;;5157282;27;20042;-76
2023/03/14 11:22:14;;;;;;;13.60;3.17;;;7.90;99.90;;;;;;5110158;27;20055;-76
2023/03/14 11:25:10;;;;;;;5.82;2.38;;;7.80;99.30;;;;;;5156457;27;20058;-75
2023/03/14 11:28:07;;;;;;;7.68;2.38;;;7.60;97.60;;;;;;5156424;27;20050;-77
2023/03/14 11:30:53;;;;;;;6.47;2.50;;;7.50;97.00;;;;;;5156381;27;20048;-75
2023/03/14 11:33:46;;;;;;;4.20;2.65;;;7.70;98.50;;;;;;5156902;27;20043;-74
2023/03/14 11:36:18;;;;;;;14.40;2.83;;;7.80;97.90;;;;;;5138316;27;20050;-74
2023/03/14 11:38:49;;;;;;;4.78;2.25;;;7.80;95.50;;;;;;5156393;27;20185;-75
2023/03/14 11:41:24;;;;;;;8.90;2.78;;;7.60;97.00;;;;;;5156588;27;20064;-76
2023/03/14 11:43:55;;;;;;;6.25;2.22;;;7.60;99.90;;;;;;5156230;27;20323;-73
2023/03/14 11:46:35;;;;;;;7.85;2.20;;;7.30;92.00;;;;;;5155970;27;20047;-77
2023/03/14 11:49:16;;;;;;;3.90;1.65;;;7.40;95.90;;;;;;5156414;27;20482;-74
2023/03/14 11:51:46;;;;;;;5.60;2.17;;;7.60;97.00;;;;;;5156301;27;20043;-75
2023/03/14 11:54:31;;;;;;;5.78;1.90;;;7.90;99.90;;;;;;5155771;27;20515;-75
2023/03/14 11:57:03;;;;;;;5.68;1.95;;;8.30;97.80;;;;;;5137690;27;20047;-76
2023/03/14 11:59:39;;;;;;;5.25;1.80;;;8.40;99.90;;;;;;5154646;27;20050;-73
2023/03/14 12:02:34;;;;;;;3.83;2.17;;;8.30;94.10;;;;;;5155838;27;20491;-75
2023/03/14 12:05:15;;;;;;;4.40;2.00;;;8.10;93.00;;;;;;5156340;27;20047;-76
2023/03/14 12:07:58;;;;;;;5.72;2.25;;;7.90;95.70;;;;;;5155588;27;20043;-74
2023/03/14 12:10:24;;;;;;;7.93;2.30;;;7.70;96.10;;;;;;5137931;27;20356;-74
2023/03/14 12:12:50;;;;;;;4.07;1.77;;;7.80;99.90;;;;;;5136955;27;20042;-77
2023/03/14 12:15:22;;;;;;;3.47;2.03;;;7.80;96.10;;;;;;5155372;27;20078;-76
2023/03/14 12:17:54;;;;;;;5.43;2.42;;;7.90;95.70;;;;;;5155863;27;20042;-74
2023/03/14 12:20:22;;;;;;;16.58;2.38;;;7.90;95.80;;;;;;5155757;27;20196;-78
2023/03/14 12:23:11;;;;;;;6.65;2.90;;;7.90;99.90;;;;;;5155155;27;20112;-76
2023/03/14 12:25:37;;;;;;;4.88;2.15;;;7.90;93.70;;;;;;5137042;27;20103;-75
2023/03/14 12:28:17;;;;;;;4.60;2.25;;;7.80;99.20;;;;;;5155576;27;20050;-77
2023/03/14 12:30:42;;;;;;;3.20;1.90;;;7.90;99.90;;;;;;5155533;27;20045;-76
2023/03/14 12:33:19;;;;;;;3.08;2.00;;;8.00;99.90;;;;;;5136928;27;20043;-74
2023/03/14 12:35:44;;;;;;;5.07;2.97;;;8.00;99.20;;;;;;5155143;27;20047;-76
2023/03/14 12:38:36;;;;;;;4.65;2.45;;;8.10;99.20;;;;;;5154959;27;20531;-78
2023/03/14 12:41:05;;;;;;;6.85;2.38;;;8.00;95.20;;;;;;5143407;27;20055;-75
2023/03/14 12:43:34;;;;;;;3.50;1.90;;;8.10;99.90;;;;;;5136423;27;20071;-79
2023/03/14 12:46:17;;;;;;;5.65;2.50;;;7.90;94.80;;;;;;5154879;27;20047;-74
2023/03/14 12:48:49;;;;;;;4.90;2.33;;;7.80;95.60;;;;;;5136238;27;20482;-76
2023/03/14 12:51:17;;;;;;;7.18;2.85;;;7.90;96.70;;;;;;5154717;27;20137;-77
2023/03/14 12:53:56;;;;;;;6.28;2.53;;;8.00;99.90;;;;;;5154757;27;20035;-76
2023/03/14 12:56:46;;;;;;;7.15;2.42;;;8.00;96.20;;;;;;5154888;27;20107;-76
2023/03/14 12:59:32;;;;;;;6.70;2.88;;;8.00;99.90;;;;;;5154355;27;20422;-75